sensor_id;sensor_type;location;lat;lon;timestamp;P1;durP1;ratioP1;P2;durP2;ratioP2
3417;SDS011;1722;51.316;12.370;2023-01-23T00:02:26;19.53;;;12.80;;
3417;SDS011;1722;51.316;12.370;2023-01-23T00:04:54;20.23;;;12.27;;
3417;SDS011;1722;51.316;12.370;2023-01-23T00:07:22;26.37;;;13.50;;
3417;SDS011;1722;51.316;12.370;2023-01-23T00:09:50;23.10;;;14.43;;
3417;SDS011;1722;51.316;12.370;2023-01-23T00:12:18;21.30;;;13.00;;
3417;SDS011;1722;51.316;12.370;2023-01-23T00:14:45;21.90;;;12.90;;
3417;SDS011;1722;51.316;12.370;2023-01-23T00:17:13;22.30;;;13.30;;
3417;SDS011;1722;51.316;12.370;2023-01-23T00:19:40;18.80;;;12.70;;
3417;SDS011;1722;51.316;12.370;2023-01-23T00:22:08;21.93;;;13.10;;
3417;SDS011;1722;51.316;12.370;2023-01-23T00:24:36;21.57;;;13.80;;
3417;SDS011;1722;51.316;12.370;2023-01-23T00:27:04;21.43;;;13.10;;
3417;SDS011;1722;51.316;12.370;2023-01-23T00:29:32;22.10;;;12.70;;
3417;SDS011;1722;51.316;12.370;2023-01-23T00:31:59;21.00;;;13.50;;
3417;SDS011;1722;51.316;12.370;2023-01-23T00:34:27;19.90;;;12.40;;
3417;SDS011;1722;51.316;12.370;2023-01-23T00:36:54;21.87;;;13.00;;
3417;SDS011;1722;51.316;12.370;2023-01-23T00:39:22;20.43;;;13.50;;
3417;SDS011;1722;51.316;12.370;2023-01-23T00:41:51;20.60;;;12.40;;
3417;SDS011;1722;51.316;12.370;2023-01-23T00:44:18;21.83;;;13.73;;
3417;SDS011;1722;51.316;12.370;2023-01-23T00:46:46;22.23;;;14.27;;
3417;SDS011;1722;51.316;12.370;2023-01-23T00:49:14;26.00;;;14.70;;
3417;SDS011;1722;51.316;12.370;2023-01-23T00:51:42;22.10;;;12.90;;
3417;SDS011;1722;51.316;12.370;2023-01-23T00:54:10;24.20;;;14.73;;
3417;SDS011;1722;51.316;12.370;2023-01-23T00:56:37;22.70;;;13.13;;
3417;SDS011;1722;51.316;12.370;2023-01-23T00:59:06;23.20;;;14.30;;
3417;SDS011;1722;51.316;12.370;2023-01-23T01:01:34;22.13;;;13.70;;
3417;SDS011;1722;51.316;12.370;2023-01-23T01:04:01;21.00;;;14.10;;
3417;SDS011;1722;51.316;12.370;2023-01-23T01:06:29;20.93;;;13.67;;
3417;SDS011;1722;51.316;12.370;2023-01-23T01:08:57;22.77;;;13.60;;
3417;SDS011;1722;51.316;12.370;2023-01-23T01:11:25;21.60;;;13.47;;
3417;SDS011;1722;51.316;12.370;2023-01-23T01:13:52;22.40;;;12.27;;
3417;SDS011;1722;51.316;12.370;2023-01-23T01:16:22;23.80;;;13.83;;
3417;SDS011;1722;51.316;12.370;2023-01-23T01:18:49;22.77;;;13.23;;
3417;SDS011;1722;51.316;12.370;2023-01-23T01:21:17;23.57;;;13.90;;
3417;SDS011;1722;51.316;12.370;2023-01-23T01:23:45;24.70;;;14.03;;
3417;SDS011;1722;51.316;12.370;2023-01-23T01:26:12;21.33;;;13.30;;
3417;SDS011;1722;51.316;12.370;2023-01-23T01:28:40;26.87;;;14.63;;
3417;SDS011;1722;51.316;12.370;2023-01-23T01:31:09;25.70;;;14.10;;
3417;SDS011;1722;51.316;12.370;2023-01-23T01:33:39;24.40;;;14.30;;
3417;SDS011;1722;51.316;12.370;2023-01-23T01:36:08;23.37;;;14.77;;
3417;SDS011;1722;51.316;12.370;2023-01-23T01:38:36;30.03;;;14.73;;
3417;SDS011;1722;51.316;12.370;2023-01-23T01:41:04;23.33;;;13.40;;
3417;SDS011;1722;51.316;12.370;2023-01-23T01:43:32;23.00;;;13.97;;
3417;SDS011;1722;51.316;12.370;2023-01-23T01:46:11;23.00;;;14.00;;
3417;SDS011;1722;51.316;12.370;2023-01-23T01:48:46;28.90;;;15.07;;
3417;SDS011;1722;51.316;12.370;2023-01-23T01:51:20;24.33;;;14.03;;
3417;SDS011;1722;51.316;12.370;2023-01-23T01:53:54;29.10;;;15.10;;
3417;SDS011;1722;51.316;12.370;2023-01-23T01:56:26;25.07;;;14.73;;
3417;SDS011;1722;51.316;12.370;2023-01-23T01:58:56;22.30;;;14.30;;
3417;SDS011;1722;51.316;12.370;2023-01-23T02:01:26;27.80;;;15.40;;
3417;SDS011;1722;51.316;12.370;2023-01-23T02:03:55;29.70;;;15.70;;
3417;SDS011;1722;51.316;12.370;2023-01-23T02:06:23;26.17;;;14.50;;
3417;SDS011;1722;51.316;12.370;2023-01-23T02:08:52;27.87;;;15.87;;
3417;SDS011;1722;51.316;12.370;2023-01-23T02:11:26;27.30;;;15.40;;
3417;SDS011;1722;51.316;12.370;2023-01-23T02:13:54;28.37;;;15.20;;
3417;SDS011;1722;51.316;12.370;2023-01-23T02:16:23;29.50;;;15.70;;
3417;SDS011;1722;51.316;12.370;2023-01-23T02:18:56;27.87;;;15.37;;
3417;SDS011;1722;51.316;12.370;2023-01-23T02:21:27;32.20;;;16.53;;
3417;SDS011;1722;51.316;12.370;2023-01-23T02:24:02;31.07;;;15.60;;
3417;SDS011;1722;51.316;12.370;2023-01-23T02:26:41;31.03;;;16.60;;
3417;SDS011;1722;51.316;12.370;2023-01-23T02:29:10;29.77;;;15.57;;
3417;SDS011;1722;51.316;12.370;2023-01-23T02:31:39;33.77;;;15.23;;
3417;SDS011;1722;51.316;12.370;2023-01-23T02:34:09;35.70;;;18.00;;
3417;SDS011;1722;51.316;12.370;2023-01-23T02:36:39;34.43;;;17.33;;
3417;SDS011;1722;51.316;12.370;2023-01-23T02:39:09;31.70;;;15.73;;
3417;SDS011;1722;51.316;12.370;2023-01-23T02:41:39;41.63;;;16.80;;
3417;SDS011;1722;51.316;12.370;2023-01-23T02:44:10;31.37;;;16.67;;
3417;SDS011;1722;51.316;12.370;2023-01-23T02:46:42;36.30;;;17.13;;
3417;SDS011;1722;51.316;12.370;2023-01-23T02:49:09;35.40;;;16.80;;
3417;SDS011;1722;51.316;12.370;2023-01-23T02:51:37;33.53;;;17.70;;
3417;SDS011;1722;51.316;12.370;2023-01-23T02:54:05;33.20;;;16.83;;
3417;SDS011;1722;51.316;12.370;2023-01-23T02:56:33;33.80;;;18.10;;
3417;SDS011;1722;51.316;12.370;2023-01-23T02:59:02;36.80;;;17.00;;
3417;SDS011;1722;51.316;12.370;2023-01-23T03:01:47;42.87;;;19.47;;
3417;SDS011;1722;51.316;12.370;2023-01-23T03:04:14;39.30;;;18.50;;
3417;SDS011;1722;51.316;12.370;2023-01-23T03:06:42;36.60;;;16.60;;
3417;SDS011;1722;51.316;12.370;2023-01-23T03:09:10;39.80;;;18.70;;
3417;SDS011;1722;51.316;12.370;2023-01-23T03:11:39;35.77;;;17.50;;
3417;SDS011;1722;51.316;12.370;2023-01-23T03:14:11;35.87;;;17.50;;
3417;SDS011;1722;51.316;12.370;2023-01-23T03:16:40;33.80;;;16.20;;
3417;SDS011;1722;51.316;12.370;2023-01-23T03:19:09;38.33;;;19.07;;
3417;SDS011;1722;51.316;12.370;2023-01-23T03:21:38;38.47;;;16.63;;
3417;SDS011;1722;51.316;12.370;2023-01-23T03:24:07;39.17;;;18.73;;
3417;SDS011;1722;51.316;12.370;2023-01-23T03:26:36;44.20;;;19.10;;
3417;SDS011;1722;51.316;12.370;2023-01-23T03:29:05;32.60;;;17.07;;
3417;SDS011;1722;51.316;12.370;2023-01-23T03:31:51;33.80;;;17.53;;
3417;SDS011;1722;51.316;12.370;2023-01-23T03:34:19;39.73;;;18.10;;
3417;SDS011;1722;51.316;12.370;2023-01-23T03:36:47;37.20;;;17.30;;
3417;SDS011;1722;51.316;12.370;2023-01-23T03:39:14;37.10;;;17.43;;
3417;SDS011;1722;51.316;12.370;2023-01-23T03:41:59;39.03;;;18.03;;
3417;SDS011;1722;51.316;12.370;2023-01-23T03:44:27;36.50;;;18.27;;
3417;SDS011;1722;51.316;12.370;2023-01-23T03:46:55;37.47;;;18.93;;
3417;SDS011;1722;51.316;12.370;2023-01-23T03:49:23;36.63;;;18.00;;
3417;SDS011;1722;51.316;12.370;2023-01-23T03:51:50;38.57;;;19.10;;
3417;SDS011;1722;51.316;12.370;2023-01-23T03:54:18;38.60;;;16.77;;
3417;SDS011;1722;51.316;12.370;2023-01-23T03:56:45;38.17;;;17.90;;
3417;SDS011;1722;51.316;12.370;2023-01-23T03:59:13;36.63;;;17.67;;
3417;SDS011;1722;51.316;12.370;2023-01-23T04:01:41;38.67;;;18.53;;
3417;SDS011;1722;51.316;12.370;2023-01-23T04:04:09;42.10;;;19.83;;
3417;SDS011;1722;51.316;12.370;2023-01-23T04:06:37;40.90;;;17.70;;
3417;SDS011;1722;51.316;12.370;2023-01-23T04:09:05;39.83;;;17.10;;
3417;SDS011;1722;51.316;12.370;2023-01-23T04:11:32;41.50;;;18.33;;
3417;SDS011;1722;51.316;12.370;2023-01-23T04:14:00;42.10;;;19.27;;
3417;SDS011;1722;51.316;12.370;2023-01-23T04:16:27;39.57;;;17.37;;
3417;SDS011;1722;51.316;12.370;2023-01-23T04:18:55;37.43;;;18.07;;
3417;SDS011;1722;51.316;12.370;2023-01-23T04:21:23;46.83;;;18.60;;
3417;SDS011;1722;51.316;12.370;2023-01-23T04:23:51;36.93;;;16.40;;
3417;SDS011;1722;51.316;12.370;2023-01-23T04:26:18;42.87;;;19.47;;
3417;SDS011;1722;51.316;12.370;2023-01-23T04:28:46;32.50;;;16.53;;
3417;SDS011;1722;51.316;12.370;2023-01-23T04:31:13;38.00;;;17.03;;
3417;SDS011;1722;51.316;12.370;2023-01-23T04:33:41;34.57;;;17.00;;
3417;SDS011;1722;51.316;12.370;2023-01-23T04:36:09;37.40;;;18.27;;
3417;SDS011;1722;51.316;12.370;2023-01-23T04:38:38;41.60;;;18.27;;
3417;SDS011;1722;51.316;12.370;2023-01-23T04:41:06;37.83;;;17.80;;
3417;SDS011;1722;51.316;12.370;2023-01-23T04:43:33;37.80;;;16.73;;
3417;SDS011;1722;51.316;12.370;2023-01-23T04:46:01;38.43;;;18.60;;
3417;SDS011;1722;51.316;12.370;2023-01-23T04:48:28;37.73;;;17.07;;
3417;SDS011;1722;51.316;12.370;2023-01-23T04:50:56;36.30;;;17.10;;
3417;SDS011;1722;51.316;12.370;2023-01-23T04:53:23;43.87;;;17.70;;
3417;SDS011;1722;51.316;12.370;2023-01-23T04:55:52;42.83;;;17.80;;
3417;SDS011;1722;51.316;12.370;2023-01-23T04:58:20;37.53;;;16.20;;
3417;SDS011;1722;51.316;12.370;2023-01-23T05:00:47;32.17;;;16.07;;
3417;SDS011;1722;51.316;12.370;2023-01-23T05:03:15;44.00;;;18.70;;
3417;SDS011;1722;51.316;12.370;2023-01-23T05:05:43;38.90;;;16.80;;
3417;SDS011;1722;51.316;12.370;2023-01-23T05:08:12;37.83;;;17.43;;
3417;SDS011;1722;51.316;12.370;2023-01-23T05:10:40;31.20;;;15.30;;
3417;SDS011;1722;51.316;12.370;2023-01-23T05:13:09;36.90;;;17.33;;
3417;SDS011;1722;51.316;12.370;2023-01-23T05:15:36;35.63;;;16.53;;
3417;SDS011;1722;51.316;12.370;2023-01-23T05:18:04;38.27;;;17.03;;
3417;SDS011;1722;51.316;12.370;2023-01-23T05:20:31;41.37;;;18.70;;
3417;SDS011;1722;51.316;12.370;2023-01-23T05:22:59;43.20;;;17.47;;
3417;SDS011;1722;51.316;12.370;2023-01-23T05:25:27;41.00;;;19.00;;
3417;SDS011;1722;51.316;12.370;2023-01-23T05:27:54;39.57;;;17.70;;
3417;SDS011;1722;51.316;12.370;2023-01-23T05:30:23;47.80;;;18.57;;
3417;SDS011;1722;51.316;12.370;2023-01-23T05:32:51;38.30;;;18.03;;
3417;SDS011;1722;51.316;12.370;2023-01-23T05:35:18;43.50;;;18.30;;
3417;SDS011;1722;51.316;12.370;2023-01-23T05:37:49;43.77;;;18.90;;
3417;SDS011;1722;51.316;12.370;2023-01-23T05:40:17;38.93;;;18.07;;
3417;SDS011;1722;51.316;12.370;2023-01-23T05:42:45;42.00;;;18.70;;
3417;SDS011;1722;51.316;12.370;2023-01-23T05:45:13;41.90;;;18.10;;
3417;SDS011;1722;51.316;12.370;2023-01-23T05:47:42;41.63;;;17.60;;
3417;SDS011;1722;51.316;12.370;2023-01-23T05:50:12;40.13;;;17.60;;
3417;SDS011;1722;51.316;12.370;2023-01-23T05:52:41;40.90;;;18.23;;
3417;SDS011;1722;51.316;12.370;2023-01-23T05:55:09;38.73;;;17.20;;
3417;SDS011;1722;51.316;12.370;2023-01-23T05:57:37;39.17;;;18.07;;
3417;SDS011;1722;51.316;12.370;2023-01-23T06:00:05;41.47;;;19.20;;
3417;SDS011;1722;51.316;12.370;2023-01-23T06:02:37;37.90;;;18.90;;
3417;SDS011;1722;51.316;12.370;2023-01-23T06:05:06;44.30;;;18.40;;
3417;SDS011;1722;51.316;12.370;2023-01-23T06:07:34;42.30;;;18.10;;
3417;SDS011;1722;51.316;12.370;2023-01-23T06:10:03;44.93;;;19.23;;
3417;SDS011;1722;51.316;12.370;2023-01-23T06:12:31;31.70;;;16.20;;
3417;SDS011;1722;51.316;12.370;2023-01-23T06:14:58;44.03;;;18.87;;
3417;SDS011;1722;51.316;12.370;2023-01-23T06:17:26;36.53;;;17.50;;
3417;SDS011;1722;51.316;12.370;2023-01-23T06:19:53;40.40;;;17.80;;
3417;SDS011;1722;51.316;12.370;2023-01-23T06:22:22;38.87;;;17.07;;
3417;SDS011;1722;51.316;12.370;2023-01-23T06:24:50;38.13;;;18.93;;
3417;SDS011;1722;51.316;12.370;2023-01-23T06:27:18;42.07;;;19.40;;
3417;SDS011;1722;51.316;12.370;2023-01-23T06:29:45;47.90;;;19.87;;
3417;SDS011;1722;51.316;12.370;2023-01-23T06:32:13;44.00;;;19.57;;
3417;SDS011;1722;51.316;12.370;2023-01-23T06:34:40;44.27;;;20.07;;
3417;SDS011;1722;51.316;12.370;2023-01-23T06:37:08;44.87;;;19.30;;
3417;SDS011;1722;51.316;12.370;2023-01-23T06:39:37;37.87;;;18.83;;
3417;SDS011;1722;51.316;12.370;2023-01-23T06:42:05;44.17;;;19.90;;
3417;SDS011;1722;51.316;12.370;2023-01-23T06:44:34;41.57;;;19.03;;
3417;SDS011;1722;51.316;12.370;2023-01-23T06:47:02;40.80;;;18.80;;
3417;SDS011;1722;51.316;12.370;2023-01-23T06:49:30;52.77;;;20.57;;
3417;SDS011;1722;51.316;12.370;2023-01-23T06:51:58;48.77;;;19.77;;
3417;SDS011;1722;51.316;12.370;2023-01-23T06:54:25;43.17;;;20.03;;
3417;SDS011;1722;51.316;12.370;2023-01-23T06:56:54;45.70;;;19.60;;
3417;SDS011;1722;51.316;12.370;2023-01-23T06:59:22;41.77;;;19.73;;
3417;SDS011;1722;51.316;12.370;2023-01-23T07:01:49;38.13;;;17.97;;
3417;SDS011;1722;51.316;12.370;2023-01-23T07:04:17;38.80;;;18.27;;
3417;SDS011;1722;51.316;12.370;2023-01-23T07:06:45;41.97;;;18.77;;
3417;SDS011;1722;51.316;12.370;2023-01-23T07:09:12;41.60;;;19.10;;
3417;SDS011;1722;51.316;12.370;2023-01-23T07:11:40;45.10;;;19.23;;
3417;SDS011;1722;51.316;12.370;2023-01-23T07:14:08;43.07;;;19.23;;
3417;SDS011;1722;51.316;12.370;2023-01-23T07:16:36;45.13;;;19.40;;
3417;SDS011;1722;51.316;12.370;2023-01-23T07:19:03;44.50;;;18.47;;
3417;SDS011;1722;51.316;12.370;2023-01-23T07:21:31;50.50;;;20.70;;
3417;SDS011;1722;51.316;12.370;2023-01-23T07:23:59;41.70;;;18.40;;
3417;SDS011;1722;51.316;12.370;2023-01-23T07:26:26;35.80;;;18.13;;
3417;SDS011;1722;51.316;12.370;2023-01-23T07:28:54;44.27;;;20.60;;
3417;SDS011;1722;51.316;12.370;2023-01-23T07:31:23;41.47;;;18.50;;
3417;SDS011;1722;51.316;12.370;2023-01-23T07:33:50;36.60;;;17.70;;
3417;SDS011;1722;51.316;12.370;2023-01-23T07:36:18;34.00;;;17.40;;
3417;SDS011;1722;51.316;12.370;2023-01-23T07:38:45;33.30;;;15.63;;
3417;SDS011;1722;51.316;12.370;2023-01-23T07:41:13;33.73;;;17.10;;
3417;SDS011;1722;51.316;12.370;2023-01-23T07:43:40;41.77;;;17.30;;
3417;SDS011;1722;51.316;12.370;2023-01-23T07:46:08;40.93;;;17.87;;
3417;SDS011;1722;51.316;12.370;2023-01-23T07:48:37;38.87;;;18.97;;
3417;SDS011;1722;51.316;12.370;2023-01-23T07:51:05;38.37;;;19.17;;
3417;SDS011;1722;51.316;12.370;2023-01-23T07:53:32;35.73;;;18.37;;
3417;SDS011;1722;51.316;12.370;2023-01-23T07:56:03;41.47;;;17.83;;
3417;SDS011;1722;51.316;12.370;2023-01-23T07:58:31;43.20;;;19.00;;
3417;SDS011;1722;51.316;12.370;2023-01-23T08:00:58;40.87;;;19.30;;
3417;SDS011;1722;51.316;12.370;2023-01-23T08:03:26;44.90;;;18.47;;
3417;SDS011;1722;51.316;12.370;2023-01-23T08:05:56;42.70;;;19.20;;
3417;SDS011;1722;51.316;12.370;2023-01-23T08:08:24;38.20;;;18.80;;
3417;SDS011;1722;51.316;12.370;2023-01-23T08:10:51;40.73;;;19.80;;
3417;SDS011;1722;51.316;12.370;2023-01-23T08:13:19;37.07;;;17.27;;
3417;SDS011;1722;51.316;12.370;2023-01-23T08:15:48;38.10;;;17.47;;
3417;SDS011;1722;51.316;12.370;2023-01-23T08:18:18;37.73;;;17.50;;
3417;SDS011;1722;51.316;12.370;2023-01-23T08:20:50;39.23;;;17.97;;
3417;SDS011;1722;51.316;12.370;2023-01-23T08:23:22;39.00;;;17.27;;
3417;SDS011;1722;51.316;12.370;2023-01-23T08:25:53;39.53;;;17.50;;
3417;SDS011;1722;51.316;12.370;2023-01-23T08:28:21;40.70;;;18.83;;
3417;SDS011;1722;51.316;12.370;2023-01-23T08:30:50;36.43;;;18.40;;
3417;SDS011;1722;51.316;12.370;2023-01-23T08:33:18;35.23;;;17.97;;
3417;SDS011;1722;51.316;12.370;2023-01-23T08:35:47;35.07;;;16.97;;
3417;SDS011;1722;51.316;12.370;2023-01-23T08:38:15;35.37;;;17.03;;
3417;SDS011;1722;51.316;12.370;2023-01-23T08:40:45;37.20;;;17.73;;
3417;SDS011;1722;51.316;12.370;2023-01-23T08:43:13;40.33;;;17.30;;
3417;SDS011;1722;51.316;12.370;2023-01-23T08:45:46;35.77;;;17.03;;
3417;SDS011;1722;51.316;12.370;2023-01-23T08:48:15;40.03;;;18.43;;
3417;SDS011;1722;51.316;12.370;2023-01-23T08:50:42;36.50;;;18.30;;
3417;SDS011;1722;51.316;12.370;2023-01-23T08:53:10;40.37;;;20.00;;
3417;SDS011;1722;51.316;12.370;2023-01-23T08:55:38;38.73;;;19.30;;
3417;SDS011;1722;51.316;12.370;2023-01-23T08:58:08;40.23;;;18.10;;
3417;SDS011;1722;51.316;12.370;2023-01-23T09:00:37;38.80;;;17.70;;
3417;SDS011;1722;51.316;12.370;2023-01-23T09:03:05;40.73;;;18.70;;
3417;SDS011;1722;51.316;12.370;2023-01-23T09:05:33;39.07;;;18.57;;
3417;SDS011;1722;51.316;12.370;2023-01-23T09:08:02;33.40;;;17.13;;
3417;SDS011;1722;51.316;12.370;2023-01-23T09:10:29;36.43;;;17.43;;
3417;SDS011;1722;51.316;12.370;2023-01-23T09:12:57;36.70;;;18.00;;
3417;SDS011;1722;51.316;12.370;2023-01-23T09:15:26;34.37;;;17.50;;
3417;SDS011;1722;51.316;12.370;2023-01-23T09:17:54;36.43;;;17.60;;
3417;SDS011;1722;51.316;12.370;2023-01-23T09:20:22;37.03;;;16.97;;
3417;SDS011;1722;51.316;12.370;2023-01-23T09:22:51;38.37;;;18.97;;
3417;SDS011;1722;51.316;12.370;2023-01-23T09:25:19;33.77;;;17.00;;
3417;SDS011;1722;51.316;12.370;2023-01-23T09:27:46;40.43;;;19.43;;
3417;SDS011;1722;51.316;12.370;2023-01-23T09:30:14;36.93;;;16.90;;
3417;SDS011;1722;51.316;12.370;2023-01-23T09:32:43;32.17;;;16.90;;
3417;SDS011;1722;51.316;12.370;2023-01-23T09:35:11;34.40;;;16.90;;
3417;SDS011;1722;51.316;12.370;2023-01-23T09:37:38;35.93;;;18.53;;
3417;SDS011;1722;51.316;12.370;2023-01-23T09:40:24;33.63;;;17.20;;
3417;SDS011;1722;51.316;12.370;2023-01-23T09:42:53;35.83;;;18.53;;
3417;SDS011;1722;51.316;12.370;2023-01-23T09:45:24;40.33;;;18.53;;
3417;SDS011;1722;51.316;12.370;2023-01-23T09:47:55;40.30;;;19.13;;
3417;SDS011;1722;51.316;12.370;2023-01-23T09:50:33;38.33;;;18.10;;
3417;SDS011;1722;51.316;12.370;2023-01-23T09:53:05;36.10;;;17.00;;
3417;SDS011;1722;51.316;12.370;2023-01-23T09:55:41;34.43;;;18.23;;
3417;SDS011;1722;51.316;12.370;2023-01-23T09:58:14;39.40;;;17.27;;
3417;SDS011;1722;51.316;12.370;2023-01-23T10:00:44;36.20;;;17.77;;
3417;SDS011;1722;51.316;12.370;2023-01-23T10:03:14;37.33;;;17.73;;
3417;SDS011;1722;51.316;12.370;2023-01-23T10:05:44;41.10;;;19.53;;
3417;SDS011;1722;51.316;12.370;2023-01-23T10:08:20;37.60;;;17.87;;
3417;SDS011;1722;51.316;12.370;2023-01-23T10:10:57;37.70;;;17.67;;
3417;SDS011;1722;51.316;12.370;2023-01-23T10:13:39;39.90;;;18.90;;
3417;SDS011;1722;51.316;12.370;2023-01-23T10:19:27;35.90;;;18.10;;
3417;SDS011;1722;51.316;12.370;2023-01-23T10:22:09;39.40;;;18.90;;
3417;SDS011;1722;51.316;12.370;2023-01-23T10:24:48;41.00;;;18.70;;
3417;SDS011;1722;51.316;12.370;2023-01-23T10:27:18;42.30;;;20.17;;
3417;SDS011;1722;51.316;12.370;2023-01-23T10:29:48;39.87;;;19.17;;
3417;SDS011;1722;51.316;12.370;2023-01-23T10:32:24;42.13;;;18.73;;
3417;SDS011;1722;51.316;12.370;2023-01-23T10:34:56;39.70;;;17.77;;
3417;SDS011;1722;51.316;12.370;2023-01-23T10:37:36;34.47;;;17.67;;
3417;SDS011;1722;51.316;12.370;2023-01-23T10:40:11;35.40;;;16.80;;
3417;SDS011;1722;51.316;12.370;2023-01-23T10:42:40;41.80;;;18.13;;
3417;SDS011;1722;51.316;12.370;2023-01-23T10:45:11;39.60;;;19.33;;
3417;SDS011;1722;51.316;12.370;2023-01-23T10:47:43;37.83;;;18.93;;
3417;SDS011;1722;51.316;12.370;2023-01-23T10:50:14;39.73;;;17.90;;
3417;SDS011;1722;51.316;12.370;2023-01-23T10:52:42;42.33;;;19.70;;
3417;SDS011;1722;51.316;12.370;2023-01-23T10:55:25;40.90;;;18.13;;
3417;SDS011;1722;51.316;12.370;2023-01-23T10:57:56;43.00;;;20.40;;
3417;SDS011;1722;51.316;12.370;2023-01-23T11:00:32;39.70;;;18.73;;
3417;SDS011;1722;51.316;12.370;2023-01-23T11:03:18;41.53;;;18.40;;
3417;SDS011;1722;51.316;12.370;2023-01-23T11:05:54;41.47;;;19.07;;
3417;SDS011;1722;51.316;12.370;2023-01-23T11:08:27;39.20;;;19.30;;
3417;SDS011;1722;51.316;12.370;2023-01-23T11:11:10;38.33;;;18.93;;
3417;SDS011;1722;51.316;12.370;2023-01-23T11:13:45;41.97;;;20.07;;
3417;SDS011;1722;51.316;12.370;2023-01-23T11:16:14;38.90;;;19.77;;
3417;SDS011;1722;51.316;12.370;2023-01-23T11:18:46;48.00;;;20.97;;
3417;SDS011;1722;51.316;12.370;2023-01-23T11:21:23;42.57;;;19.70;;
3417;SDS011;1722;51.316;12.370;2023-01-23T11:24:06;47.27;;;20.27;;
3417;SDS011;1722;51.316;12.370;2023-01-23T11:26:35;37.17;;;19.53;;
3417;SDS011;1722;51.316;12.370;2023-01-23T11:29:18;39.33;;;19.47;;
3417;SDS011;1722;51.316;12.370;2023-01-23T11:31:47;43.23;;;20.40;;
3417;SDS011;1722;51.316;12.370;2023-01-23T11:34:17;43.40;;;20.17;;
3417;SDS011;1722;51.316;12.370;2023-01-23T11:36:52;40.23;;;20.97;;
3417;SDS011;1722;51.316;12.370;2023-01-23T11:39:28;39.30;;;20.37;;
3417;SDS011;1722;51.316;12.370;2023-01-23T11:42:03;48.07;;;20.70;;
3417;SDS011;1722;51.316;12.370;2023-01-23T11:44:31;37.90;;;20.87;;
3417;SDS011;1722;51.316;12.370;2023-01-23T11:47:11;46.37;;;20.47;;
3417;SDS011;1722;51.316;12.370;2023-01-23T11:49:59;43.57;;;21.00;;
3417;SDS011;1722;51.316;12.370;2023-01-23T11:52:41;41.87;;;19.40;;
3417;SDS011;1722;51.316;12.370;2023-01-23T11:55:28;39.30;;;19.30;;
3417;SDS011;1722;51.316;12.370;2023-01-23T11:58:08;41.70;;;20.00;;
3417;SDS011;1722;51.316;12.370;2023-01-23T12:00:49;35.00;;;19.00;;
3417;SDS011;1722;51.316;12.370;2023-01-23T12:03:35;37.80;;;20.23;;
3417;SDS011;1722;51.316;12.370;2023-01-23T12:06:38;37.60;;;19.93;;
3417;SDS011;1722;51.316;12.370;2023-01-23T12:09:17;40.43;;;19.37;;
3417;SDS011;1722;51.316;12.370;2023-01-23T12:11:49;42.43;;;21.70;;
3417;SDS011;1722;51.316;12.370;2023-01-23T12:14:41;42.57;;;19.97;;
3417;SDS011;1722;51.316;12.370;2023-01-23T12:17:19;41.33;;;20.50;;
3417;SDS011;1722;51.316;12.370;2023-01-23T12:20:02;46.80;;;21.90;;
3417;SDS011;1722;51.316;12.370;2023-01-23T12:22:48;42.50;;;20.23;;
3417;SDS011;1722;51.316;12.370;2023-01-23T12:25:25;45.10;;;22.90;;
3417;SDS011;1722;51.316;12.370;2023-01-23T12:28:00;46.77;;;22.70;;
3417;SDS011;1722;51.316;12.370;2023-01-23T12:30:58;45.83;;;21.93;;
3417;SDS011;1722;51.316;12.370;2023-01-23T12:33:37;42.30;;;21.13;;
3417;SDS011;1722;51.316;12.370;2023-01-23T12:36:20;46.00;;;22.93;;
3417;SDS011;1722;51.316;12.370;2023-01-23T12:39:03;45.83;;;22.37;;
3417;SDS011;1722;51.316;12.370;2023-01-23T12:41:37;43.70;;;22.23;;
3417;SDS011;1722;51.316;12.370;2023-01-23T12:44:09;40.07;;;22.73;;
3417;SDS011;1722;51.316;12.370;2023-01-23T12:46:41;46.17;;;23.57;;
3417;SDS011;1722;51.316;12.370;2023-01-23T12:49:17;46.83;;;22.87;;
3417;SDS011;1722;51.316;12.370;2023-01-23T12:51:51;43.40;;;22.27;;
3417;SDS011;1722;51.316;12.370;2023-01-23T12:54:26;41.77;;;21.80;;
3417;SDS011;1722;51.316;12.370;2023-01-23T12:57:00;48.20;;;23.33;;
3417;SDS011;1722;51.316;12.370;2023-01-23T12:59:32;40.93;;;22.33;;
3417;SDS011;1722;51.316;12.370;2023-01-23T13:02:08;41.60;;;21.47;;
3417;SDS011;1722;51.316;12.370;2023-01-23T13:04:45;49.30;;;22.47;;
3417;SDS011;1722;51.316;12.370;2023-01-23T13:07:27;40.40;;;21.13;;
3417;SDS011;1722;51.316;12.370;2023-01-23T13:13:20;47.03;;;21.70;;
3417;SDS011;1722;51.316;12.370;2023-01-23T13:18:35;45.27;;;22.10;;
3417;SDS011;1722;51.316;12.370;2023-01-23T13:21:17;43.40;;;21.20;;
3417;SDS011;1722;51.316;12.370;2023-01-23T13:24:12;42.47;;;22.20;;
3417;SDS011;1722;51.316;12.370;2023-01-23T13:30:14;43.40;;;21.20;;
3417;SDS011;1722;51.316;12.370;2023-01-23T13:36:28;39.70;;;19.47;;
3417;SDS011;1722;51.316;12.370;2023-01-23T13:39:10;40.77;;;21.50;;
3417;SDS011;1722;51.316;12.370;2023-01-23T13:41:49;46.20;;;24.23;;
3417;SDS011;1722;51.316;12.370;2023-01-23T13:47:40;43.43;;;22.77;;
3417;SDS011;1722;51.316;12.370;2023-01-23T13:50:34;46.53;;;22.07;;
3417;SDS011;1722;51.316;12.370;2023-01-23T13:53:10;39.53;;;21.60;;
3417;SDS011;1722;51.316;12.370;2023-01-23T13:55:59;43.30;;;21.73;;
3417;SDS011;1722;51.316;12.370;2023-01-23T13:58:44;44.50;;;22.97;;
3417;SDS011;1722;51.316;12.370;2023-01-23T14:01:15;42.50;;;21.80;;
3417;SDS011;1722;51.316;12.370;2023-01-23T14:04:05;42.07;;;20.67;;
3417;SDS011;1722;51.316;12.370;2023-01-23T14:06:56;42.90;;;22.80;;
3417;SDS011;1722;51.316;12.370;2023-01-23T14:09:24;40.67;;;20.70;;
3417;SDS011;1722;51.316;12.370;2023-01-23T14:11:56;41.23;;;22.27;;
3417;SDS011;1722;51.316;12.370;2023-01-23T14:14:24;45.83;;;21.80;;
3417;SDS011;1722;51.316;12.370;2023-01-23T14:17:10;45.90;;;23.30;;
3417;SDS011;1722;51.316;12.370;2023-01-23T14:19:46;50.33;;;23.93;;
3417;SDS011;1722;51.316;12.370;2023-01-23T14:22:18;51.63;;;24.40;;
3417;SDS011;1722;51.316;12.370;2023-01-23T14:24:46;45.80;;;25.40;;
3417;SDS011;1722;51.316;12.370;2023-01-23T14:27:18;51.60;;;25.30;;
3417;SDS011;1722;51.316;12.370;2023-01-23T14:29:56;46.80;;;23.67;;
3417;SDS011;1722;51.316;12.370;2023-01-23T14:32:25;46.63;;;23.27;;
3417;SDS011;1722;51.316;12.370;2023-01-23T14:34:57;43.10;;;23.27;;
3417;SDS011;1722;51.316;12.370;2023-01-23T14:37:24;45.83;;;24.63;;
3417;SDS011;1722;51.316;12.370;2023-01-23T14:39:54;51.30;;;24.70;;
3417;SDS011;1722;51.316;12.370;2023-01-23T14:42:24;40.67;;;21.33;;
3417;SDS011;1722;51.316;12.370;2023-01-23T14:44:53;42.40;;;23.70;;
3417;SDS011;1722;51.316;12.370;2023-01-23T14:47:24;40.83;;;21.10;;
3417;SDS011;1722;51.316;12.370;2023-01-23T14:49:54;44.50;;;23.17;;
3417;SDS011;1722;51.316;12.370;2023-01-23T14:52:24;45.90;;;22.93;;
3417;SDS011;1722;51.316;12.370;2023-01-23T14:54:53;45.23;;;23.60;;
3417;SDS011;1722;51.316;12.370;2023-01-23T14:57:24;43.40;;;21.63;;
3417;SDS011;1722;51.316;12.370;2023-01-23T14:59:54;46.83;;;23.90;;
3417;SDS011;1722;51.316;12.370;2023-01-23T15:02:26;49.73;;;23.80;;
3417;SDS011;1722;51.316;12.370;2023-01-23T15:05:06;43.43;;;21.87;;
3417;SDS011;1722;51.316;12.370;2023-01-23T15:07:36;47.97;;;24.83;;
3417;SDS011;1722;51.316;12.370;2023-01-23T15:10:12;49.47;;;23.67;;
3417;SDS011;1722;51.316;12.370;2023-01-23T15:12:46;42.80;;;23.07;;
3417;SDS011;1722;51.316;12.370;2023-01-23T15:15:16;44.47;;;23.30;;
3417;SDS011;1722;51.316;12.370;2023-01-23T15:17:45;42.87;;;22.67;;